Owyhee Corners, Oregon
Current Conditions -  °F | °C
As of 1:53 PM on Thursday 23 Oct 2014 (Local Time) from KONO Reporting Station
Broken Clouds Broken Clouds  
Wind Chill: 57°   Ceiling: 8000
Heat Index: 57°   Visibility: 10mi
Dew Point: 50°   Wind: 10mph
Humidity: 77%   Direction: 120°ESE
Pressure: 30"   Gusts: 20mph
Location:  43.754°N, 117.202°W
Report Text: KONO 231953Z AUTO 12009G17KT 10SM FEW041 SCT055 BKN080 14/10 A3000 RMK AO2 RAE42 SLP158 P0000 T01390100
Loading
Personal Weather Stations






























Interactive Weather Map
Tropical Storm Tracking
New forecast layout! Learn more

10-Day Weather Forecast

Advertisements
Track Severe Weather on mobile